sensor_id;sensor_type;location;lat;lon;timestamp;P1;durP1;ratioP1;P2;durP2;ratioP2
59006;SDS011;44792;52.760;6.726;2024-02-28T00:01:03;50.95;;;22.40;;
59006;SDS011;44792;52.760;6.726;2024-02-28T00:03:29;47.80;;;21.65;;
59006;SDS011;44792;52.760;6.726;2024-02-28T00:05:57;50.95;;;22.42;;
59006;SDS011;44792;52.760;6.726;2024-02-28T00:08:23;50.88;;;22.25;;
59006;SDS011;44792;52.760;6.726;2024-02-28T00:10:49;53.17;;;23.80;;
59006;SDS011;44792;52.760;6.726;2024-02-28T00:13:14;55.33;;;22.65;;
59006;SDS011;44792;52.760;6.726;2024-02-28T00:15:41;63.80;;;26.45;;
59006;SDS011;44792;52.760;6.726;2024-02-28T00:18:07;58.33;;;24.65;;
59006;SDS011;44792;52.760;6.726;2024-02-28T00:20:32;54.72;;;24.75;;
59006;SDS011;44792;52.760;6.726;2024-02-28T00:22:58;52.55;;;22.83;;
59006;SDS011;44792;52.760;6.726;2024-02-28T00:25:24;49.75;;;22.15;;
59006;SDS011;44792;52.760;6.726;2024-02-28T00:27:49;54.92;;;22.65;;
59006;SDS011;44792;52.760;6.726;2024-02-28T00:30:16;77.82;;;23.00;;
59006;SDS011;44792;52.760;6.726;2024-02-28T00:32:42;48.88;;;22.10;;
59006;SDS011;44792;52.760;6.726;2024-02-28T00:35:08;49.80;;;20.10;;
59006;SDS011;44792;52.760;6.726;2024-02-28T00:37:34;62.85;;;23.08;;
59006;SDS011;44792;52.760;6.726;2024-02-28T00:39:59;52.42;;;23.00;;
59006;SDS011;44792;52.760;6.726;2024-02-28T00:42:25;47.45;;;21.60;;
59006;SDS011;44792;52.760;6.726;2024-02-28T00:44:52;54.30;;;24.20;;
59006;SDS011;44792;52.760;6.726;2024-02-28T00:47:17;56.00;;;22.50;;
59006;SDS011;44792;52.760;6.726;2024-02-28T00:49:43;56.67;;;22.02;;
59006;SDS011;44792;52.760;6.726;2024-02-28T00:52:09;54.30;;;22.20;;
59006;SDS011;44792;52.760;6.726;2024-02-28T00:54:34;51.88;;;19.88;;
59006;SDS011;44792;52.760;6.726;2024-02-28T00:57:00;52.05;;;20.02;;
59006;SDS011;44792;52.760;6.726;2024-02-28T00:59:26;43.00;;;21.13;;
59006;SDS011;44792;52.760;6.726;2024-02-28T01:01:52;48.75;;;21.48;;
59006;SDS011;44792;52.760;6.726;2024-02-28T01:04:17;52.28;;;21.23;;
59006;SDS011;44792;52.760;6.726;2024-02-28T01:06:43;59.42;;;21.95;;
59006;SDS011;44792;52.760;6.726;2024-02-28T01:09:09;48.90;;;21.33;;
59006;SDS011;44792;52.760;6.726;2024-02-28T01:11:34;46.25;;;21.58;;
59006;SDS011;44792;52.760;6.726;2024-02-28T01:14:00;48.22;;;20.35;;
59006;SDS011;44792;52.760;6.726;2024-02-28T01:16:26;47.75;;;19.40;;
59006;SDS011;44792;52.760;6.726;2024-02-28T01:18:53;52.78;;;23.88;;
59006;SDS011;44792;52.760;6.726;2024-02-28T01:21:18;50.03;;;21.23;;
59006;SDS011;44792;52.760;6.726;2024-02-28T01:23:44;64.90;;;21.55;;
59006;SDS011;44792;52.760;6.726;2024-02-28T01:26:10;52.08;;;22.98;;
59006;SDS011;44792;52.760;6.726;2024-02-28T01:28:35;48.33;;;21.30;;
59006;SDS011;44792;52.760;6.726;2024-02-28T01:31:01;49.30;;;22.00;;
59006;SDS011;44792;52.760;6.726;2024-02-28T01:33:27;48.88;;;21.30;;
59006;SDS011;44792;52.760;6.726;2024-02-28T01:35:53;50.15;;;23.10;;
59006;SDS011;44792;52.760;6.726;2024-02-28T01:38:18;51.03;;;22.33;;
59006;SDS011;44792;52.760;6.726;2024-02-28T01:40:47;48.13;;;21.20;;
59006;SDS011;44792;52.760;6.726;2024-02-28T01:43:13;61.22;;;22.85;;
59006;SDS011;44792;52.760;6.726;2024-02-28T01:45:42;59.38;;;24.23;;
59006;SDS011;44792;52.760;6.726;2024-02-28T01:48:11;53.60;;;23.13;;
59006;SDS011;44792;52.760;6.726;2024-02-28T01:50:37;46.92;;;21.33;;
59006;SDS011;44792;52.760;6.726;2024-02-28T01:53:06;47.63;;;21.23;;
59006;SDS011;44792;52.760;6.726;2024-02-28T01:55:35;44.90;;;20.58;;
59006;SDS011;44792;52.760;6.726;2024-02-28T01:58:01;46.45;;;20.80;;
59006;SDS011;44792;52.760;6.726;2024-02-28T02:00:30;46.60;;;20.50;;
59006;SDS011;44792;52.760;6.726;2024-02-28T02:02:58;47.70;;;19.60;;
59006;SDS011;44792;52.760;6.726;2024-02-28T02:05:25;43.35;;;19.92;;
59006;SDS011;44792;52.760;6.726;2024-02-28T02:07:51;44.80;;;20.58;;
59006;SDS011;44792;52.760;6.726;2024-02-28T02:10:17;43.03;;;20.20;;
59006;SDS011;44792;52.760;6.726;2024-02-28T02:12:43;51.28;;;23.60;;
59006;SDS011;44792;52.760;6.726;2024-02-28T02:15:09;41.95;;;20.70;;
59006;SDS011;44792;52.760;6.726;2024-02-28T02:17:35;49.88;;;22.70;;
59006;SDS011;44792;52.760;6.726;2024-02-28T02:20:01;45.25;;;19.88;;
59006;SDS011;44792;52.760;6.726;2024-02-28T02:25:03;48.60;;;21.08;;
59006;SDS011;44792;52.760;6.726;2024-02-28T02:27:29;44.60;;;20.92;;
59006;SDS011;44792;52.760;6.726;2024-02-28T02:29:55;47.22;;;21.60;;
59006;SDS011;44792;52.760;6.726;2024-02-28T02:32:20;42.15;;;19.40;;
59006;SDS011;44792;52.760;6.726;2024-02-28T02:34:46;42.80;;;22.50;;
59006;SDS011;44792;52.760;6.726;2024-02-28T02:37:12;44.95;;;20.23;;
59006;SDS011;44792;52.760;6.726;2024-02-28T02:39:37;44.88;;;19.83;;
59006;SDS011;44792;52.760;6.726;2024-02-28T02:42:03;49.10;;;22.13;;
59006;SDS011;44792;52.760;6.726;2024-02-28T02:44:29;43.15;;;19.27;;
59006;SDS011;44792;52.760;6.726;2024-02-28T02:46:55;48.95;;;19.85;;
59006;SDS011;44792;52.760;6.726;2024-02-28T02:49:20;42.67;;;20.08;;
59006;SDS011;44792;52.760;6.726;2024-02-28T02:51:46;44.28;;;21.20;;
59006;SDS011;44792;52.760;6.726;2024-02-28T02:54:12;44.65;;;19.58;;
59006;SDS011;44792;52.760;6.726;2024-02-28T02:56:40;44.72;;;20.10;;
59006;SDS011;44792;52.760;6.726;2024-02-28T02:59:07;40.33;;;18.45;;
59006;SDS011;44792;52.760;6.726;2024-02-28T03:01:34;45.47;;;22.25;;
59006;SDS011;44792;52.760;6.726;2024-02-28T03:04:00;42.92;;;19.80;;
59006;SDS011;44792;52.760;6.726;2024-02-28T03:06:26;39.47;;;17.58;;
59006;SDS011;44792;52.760;6.726;2024-02-28T03:08:51;38.33;;;20.10;;
59006;SDS011;44792;52.760;6.726;2024-02-28T03:11:17;39.38;;;20.05;;
59006;SDS011;44792;52.760;6.726;2024-02-28T03:13:43;39.58;;;18.42;;
59006;SDS011;44792;52.760;6.726;2024-02-28T03:16:08;39.88;;;19.80;;
59006;SDS011;44792;52.760;6.726;2024-02-28T03:18:34;37.63;;;19.15;;
59006;SDS011;44792;52.760;6.726;2024-02-28T03:21:00;39.50;;;20.10;;
59006;SDS011;44792;52.760;6.726;2024-02-28T03:23:27;37.97;;;19.30;;
59006;SDS011;44792;52.760;6.726;2024-02-28T03:25:52;41.20;;;21.05;;
59006;SDS011;44792;52.760;6.726;2024-02-28T03:28:18;40.13;;;18.25;;
59006;SDS011;44792;52.760;6.726;2024-02-28T03:30:44;40.95;;;19.10;;
59006;SDS011;44792;52.760;6.726;2024-02-28T03:33:09;40.45;;;20.23;;
59006;SDS011;44792;52.760;6.726;2024-02-28T03:35:35;43.95;;;19.42;;
59006;SDS011;44792;52.760;6.726;2024-02-28T03:38:01;45.28;;;18.10;;
59006;SDS011;44792;52.760;6.726;2024-02-28T03:40:26;39.22;;;20.17;;
59006;SDS011;44792;52.760;6.726;2024-02-28T03:42:52;38.35;;;19.02;;
59006;SDS011;44792;52.760;6.726;2024-02-28T03:45:19;39.88;;;18.77;;
59006;SDS011;44792;52.760;6.726;2024-02-28T03:47:44;44.55;;;20.25;;
59006;SDS011;44792;52.760;6.726;2024-02-28T03:50:10;40.20;;;18.90;;
59006;SDS011;44792;52.760;6.726;2024-02-28T03:52:36;44.30;;;20.20;;
59006;SDS011;44792;52.760;6.726;2024-02-28T03:55:02;41.65;;;19.02;;
59006;SDS011;44792;52.760;6.726;2024-02-28T03:57:28;43.35;;;20.60;;
59006;SDS011;44792;52.760;6.726;2024-02-28T03:59:54;41.38;;;20.17;;
59006;SDS011;44792;52.760;6.726;2024-02-28T04:02:19;47.20;;;20.13;;
59006;SDS011;44792;52.760;6.726;2024-02-28T04:04:46;42.22;;;18.48;;
59006;SDS011;44792;52.760;6.726;2024-02-28T04:07:12;44.75;;;20.63;;
59006;SDS011;44792;52.760;6.726;2024-02-28T04:09:38;46.60;;;20.85;;
59006;SDS011;44792;52.760;6.726;2024-02-28T04:12:06;50.97;;;20.67;;
59006;SDS011;44792;52.760;6.726;2024-02-28T04:14:32;39.97;;;18.48;;
59006;SDS011;44792;52.760;6.726;2024-02-28T04:16:58;43.85;;;19.58;;
59006;SDS011;44792;52.760;6.726;2024-02-28T04:19:24;48.50;;;21.52;;
59006;SDS011;44792;52.760;6.726;2024-02-28T04:21:49;46.22;;;20.95;;
59006;SDS011;44792;52.760;6.726;2024-02-28T04:24:15;44.83;;;20.48;;
59006;SDS011;44792;52.760;6.726;2024-02-28T04:26:41;39.53;;;18.75;;
59006;SDS011;44792;52.760;6.726;2024-02-28T04:29:06;41.28;;;18.23;;
59006;SDS011;44792;52.760;6.726;2024-02-28T04:31:38;42.03;;;19.48;;
59006;SDS011;44792;52.760;6.726;2024-02-28T04:34:04;45.67;;;20.35;;
59006;SDS011;44792;52.760;6.726;2024-02-28T04:36:30;48.50;;;21.40;;
59006;SDS011;44792;52.760;6.726;2024-02-28T04:38:55;47.35;;;19.45;;
59006;SDS011;44792;52.760;6.726;2024-02-28T04:41:21;45.50;;;20.88;;
59006;SDS011;44792;52.760;6.726;2024-02-28T04:43:47;50.78;;;20.88;;
59006;SDS011;44792;52.760;6.726;2024-02-28T04:46:12;45.50;;;21.08;;
59006;SDS011;44792;52.760;6.726;2024-02-28T04:48:38;44.78;;;20.13;;
59006;SDS011;44792;52.760;6.726;2024-02-28T04:51:04;49.40;;;21.42;;
59006;SDS011;44792;52.760;6.726;2024-02-28T04:53:29;45.58;;;20.00;;
59006;SDS011;44792;52.760;6.726;2024-02-28T04:55:55;52.60;;;22.38;;
59006;SDS011;44792;52.760;6.726;2024-02-28T04:58:21;50.75;;;20.73;;
59006;SDS011;44792;52.760;6.726;2024-02-28T05:00:47;53.15;;;22.13;;
59006;SDS011;44792;52.760;6.726;2024-02-28T05:03:12;51.38;;;21.35;;
59006;SDS011;44792;52.760;6.726;2024-02-28T05:05:38;50.50;;;21.13;;
59006;SDS011;44792;52.760;6.726;2024-02-28T05:08:04;49.10;;;21.45;;
59006;SDS011;44792;52.760;6.726;2024-02-28T05:10:29;53.95;;;22.88;;
59006;SDS011;44792;52.760;6.726;2024-02-28T05:12:55;53.72;;;22.85;;
59006;SDS011;44792;52.760;6.726;2024-02-28T05:15:21;47.03;;;21.20;;
59006;SDS011;44792;52.760;6.726;2024-02-28T05:17:49;55.65;;;22.40;;
59006;SDS011;44792;52.760;6.726;2024-02-28T05:20:16;48.15;;;21.85;;
59006;SDS011;44792;52.760;6.726;2024-02-28T05:22:42;46.22;;;21.85;;
59006;SDS011;44792;52.760;6.726;2024-02-28T05:25:08;52.05;;;22.88;;
59006;SDS011;44792;52.760;6.726;2024-02-28T05:27:34;51.85;;;21.90;;
59006;SDS011;44792;52.760;6.726;2024-02-28T05:30:00;54.95;;;22.50;;
59006;SDS011;44792;52.760;6.726;2024-02-28T05:32:26;49.10;;;20.95;;
59006;SDS011;44792;52.760;6.726;2024-02-28T05:34:52;53.70;;;22.77;;
59006;SDS011;44792;52.760;6.726;2024-02-28T05:37:18;52.15;;;21.80;;
59006;SDS011;44792;52.760;6.726;2024-02-28T05:39:43;51.63;;;21.75;;
59006;SDS011;44792;52.760;6.726;2024-02-28T05:42:09;58.40;;;22.10;;
59006;SDS011;44792;52.760;6.726;2024-02-28T05:44:35;54.95;;;23.45;;
59006;SDS011;44792;52.760;6.726;2024-02-28T05:47:00;50.25;;;21.52;;
59006;SDS011;44792;52.760;6.726;2024-02-28T05:49:26;57.47;;;22.67;;
59006;SDS011;44792;52.760;6.726;2024-02-28T05:51:52;60.08;;;24.55;;
59006;SDS011;44792;52.760;6.726;2024-02-28T05:54:19;50.72;;;22.70;;
59006;SDS011;44792;52.760;6.726;2024-02-28T05:56:44;55.10;;;22.77;;
59006;SDS011;44792;52.760;6.726;2024-02-28T05:59:10;56.42;;;22.77;;
59006;SDS011;44792;52.760;6.726;2024-02-28T06:01:35;57.00;;;22.77;;
59006;SDS011;44792;52.760;6.726;2024-02-28T06:04:02;49.63;;;21.88;;
59006;SDS011;44792;52.760;6.726;2024-02-28T06:06:28;59.25;;;23.33;;
59006;SDS011;44792;52.760;6.726;2024-02-28T06:08:54;51.33;;;22.58;;
59006;SDS011;44792;52.760;6.726;2024-02-28T06:11:21;50.80;;;21.70;;
59006;SDS011;44792;52.760;6.726;2024-02-28T06:13:47;53.47;;;22.77;;
59006;SDS011;44792;52.760;6.726;2024-02-28T06:16:14;55.53;;;23.13;;
59006;SDS011;44792;52.760;6.726;2024-02-28T06:18:41;57.90;;;22.67;;
59006;SDS011;44792;52.760;6.726;2024-02-28T06:21:07;54.22;;;23.75;;
59006;SDS011;44792;52.760;6.726;2024-02-28T06:23:32;57.10;;;23.80;;
59006;SDS011;44792;52.760;6.726;2024-02-28T06:25:58;53.15;;;21.20;;
59006;SDS011;44792;52.760;6.726;2024-02-28T06:28:24;54.03;;;22.20;;
59006;SDS011;44792;52.760;6.726;2024-02-28T06:30:49;47.08;;;21.13;;
59006;SDS011;44792;52.760;6.726;2024-02-28T06:33:15;56.42;;;21.98;;
59006;SDS011;44792;52.760;6.726;2024-02-28T06:35:41;49.38;;;21.65;;
59006;SDS011;44792;52.760;6.726;2024-02-28T06:38:07;52.60;;;22.08;;
59006;SDS011;44792;52.760;6.726;2024-02-28T06:40:32;51.13;;;22.92;;
59006;SDS011;44792;52.760;6.726;2024-02-28T06:42:59;56.35;;;22.98;;
59006;SDS011;44792;52.760;6.726;2024-02-28T06:45:25;54.13;;;24.73;;
59006;SDS011;44792;52.760;6.726;2024-02-28T06:47:54;47.13;;;20.88;;
59006;SDS011;44792;52.760;6.726;2024-02-28T06:50:20;52.05;;;21.77;;
59006;SDS011;44792;52.760;6.726;2024-02-28T06:52:45;54.15;;;22.85;;
59006;SDS011;44792;52.760;6.726;2024-02-28T06:55:11;52.25;;;22.48;;
59006;SDS011;44792;52.760;6.726;2024-02-28T06:57:39;51.55;;;21.50;;
59006;SDS011;44792;52.760;6.726;2024-02-28T07:00:06;50.78;;;22.00;;
59006;SDS011;44792;52.760;6.726;2024-02-28T07:02:34;53.70;;;23.65;;
59006;SDS011;44792;52.760;6.726;2024-02-28T07:05:00;53.50;;;23.27;;
59006;SDS011;44792;52.760;6.726;2024-02-28T07:07:27;53.53;;;22.45;;
59006;SDS011;44792;52.760;6.726;2024-02-28T07:09:52;52.45;;;22.52;;
59006;SDS011;44792;52.760;6.726;2024-02-28T07:12:18;58.97;;;23.60;;
59006;SDS011;44792;52.760;6.726;2024-02-28T07:14:44;52.63;;;23.20;;
59006;SDS011;44792;52.760;6.726;2024-02-28T07:17:09;56.00;;;23.33;;
59006;SDS011;44792;52.760;6.726;2024-02-28T07:19:35;53.90;;;24.48;;
59006;SDS011;44792;52.760;6.726;2024-02-28T07:22:01;57.58;;;25.13;;
59006;SDS011;44792;52.760;6.726;2024-02-28T07:24:27;55.08;;;22.85;;
59006;SDS011;44792;52.760;6.726;2024-02-28T07:26:53;57.17;;;24.17;;
59006;SDS011;44792;52.760;6.726;2024-02-28T07:29:19;58.00;;;23.48;;
59006;SDS011;44792;52.760;6.726;2024-02-28T07:31:44;54.60;;;22.88;;
59006;SDS011;44792;52.760;6.726;2024-02-28T07:34:10;59.25;;;24.17;;
59006;SDS011;44792;52.760;6.726;2024-02-28T07:36:36;58.25;;;23.90;;
59006;SDS011;44792;52.760;6.726;2024-02-28T07:39:03;55.05;;;22.77;;
59006;SDS011;44792;52.760;6.726;2024-02-28T07:41:28;53.95;;;23.77;;
59006;SDS011;44792;52.760;6.726;2024-02-28T07:43:54;50.63;;;21.48;;
59006;SDS011;44792;52.760;6.726;2024-02-28T07:46:20;59.42;;;24.38;;
59006;SDS011;44792;52.760;6.726;2024-02-28T07:48:45;53.65;;;21.90;;
59006;SDS011;44792;52.760;6.726;2024-02-28T07:51:11;55.53;;;22.50;;
59006;SDS011;44792;52.760;6.726;2024-02-28T07:53:37;51.53;;;23.70;;
59006;SDS011;44792;52.760;6.726;2024-02-28T07:56:02;54.78;;;24.42;;
59006;SDS011;44792;52.760;6.726;2024-02-28T07:58:28;57.17;;;22.13;;
59006;SDS011;44792;52.760;6.726;2024-02-28T08:00:54;52.88;;;22.33;;
59006;SDS011;44792;52.760;6.726;2024-02-28T08:03:20;55.70;;;25.33;;
59006;SDS011;44792;52.760;6.726;2024-02-28T08:05:46;49.55;;;22.95;;
59006;SDS011;44792;52.760;6.726;2024-02-28T08:08:13;56.25;;;25.23;;
59006;SDS011;44792;52.760;6.726;2024-02-28T08:10:39;62.15;;;25.05;;
59006;SDS011;44792;52.760;6.726;2024-02-28T08:13:05;55.53;;;25.38;;
59006;SDS011;44792;52.760;6.726;2024-02-28T08:15:31;59.17;;;24.92;;
59006;SDS011;44792;52.760;6.726;2024-02-28T08:17:57;56.65;;;25.48;;
59006;SDS011;44792;52.760;6.726;2024-02-28T08:20:23;57.85;;;24.58;;
59006;SDS011;44792;52.760;6.726;2024-02-28T08:22:49;61.10;;;26.55;;
59006;SDS011;44792;52.760;6.726;2024-02-28T08:25:17;55.90;;;24.00;;
59006;SDS011;44792;52.760;6.726;2024-02-28T08:27:44;52.85;;;23.67;;
59006;SDS011;44792;52.760;6.726;2024-02-28T08:30:09;56.25;;;24.35;;
59006;SDS011;44792;52.760;6.726;2024-02-28T08:32:35;59.55;;;26.40;;
59006;SDS011;44792;52.760;6.726;2024-02-28T08:35:01;51.00;;;24.08;;
59006;SDS011;44792;52.760;6.726;2024-02-28T08:37:27;52.90;;;23.67;;
59006;SDS011;44792;52.760;6.726;2024-02-28T08:39:56;55.55;;;23.52;;
59006;SDS011;44792;52.760;6.726;2024-02-28T08:42:26;56.55;;;23.77;;
59006;SDS011;44792;52.760;6.726;2024-02-28T08:44:55;52.35;;;24.08;;
59006;SDS011;44792;52.760;6.726;2024-02-28T08:47:23;53.83;;;24.80;;
59006;SDS011;44792;52.760;6.726;2024-02-28T08:49:50;57.55;;;25.75;;
59006;SDS011;44792;52.760;6.726;2024-02-28T08:52:16;54.50;;;24.13;;
59006;SDS011;44792;52.760;6.726;2024-02-28T08:54:42;53.28;;;23.73;;
59006;SDS011;44792;52.760;6.726;2024-02-28T08:57:08;51.78;;;22.50;;
59006;SDS011;44792;52.760;6.726;2024-02-28T08:59:34;52.63;;;25.73;;
59006;SDS011;44792;52.760;6.726;2024-02-28T09:02:00;63.45;;;25.08;;
59006;SDS011;44792;52.760;6.726;2024-02-28T09:04:26;52.63;;;22.48;;
59006;SDS011;44792;52.760;6.726;2024-02-28T09:06:52;49.35;;;24.65;;
59006;SDS011;44792;52.760;6.726;2024-02-28T09:09:18;50.47;;;24.02;;
59006;SDS011;44792;52.760;6.726;2024-02-28T09:11:44;51.80;;;23.10;;
59006;SDS011;44792;52.760;6.726;2024-02-28T09:14:10;55.58;;;24.95;;
59006;SDS011;44792;52.760;6.726;2024-02-28T09:16:35;53.85;;;23.80;;
59006;SDS011;44792;52.760;6.726;2024-02-28T09:19:03;54.35;;;24.08;;
59006;SDS011;44792;52.760;6.726;2024-02-28T09:21:29;51.97;;;25.00;;
59006;SDS011;44792;52.760;6.726;2024-02-28T09:23:55;50.70;;;24.20;;
59006;SDS011;44792;52.760;6.726;2024-02-28T09:26:21;51.40;;;24.85;;
59006;SDS011;44792;52.760;6.726;2024-02-28T09:28:47;52.50;;;25.23;;
59006;SDS011;44792;52.760;6.726;2024-02-28T09:31:12;54.03;;;24.48;;
59006;SDS011;44792;52.760;6.726;2024-02-28T09:33:40;51.83;;;24.75;;
59006;SDS011;44792;52.760;6.726;2024-02-28T09:36:06;55.70;;;25.10;;
59006;SDS011;44792;52.760;6.726;2024-02-28T09:38:32;56.90;;;26.48;;
59006;SDS011;44792;52.760;6.726;2024-02-28T09:41:00;53.63;;;26.45;;
59006;SDS011;44792;52.760;6.726;2024-02-28T09:43:29;65.00;;;28.15;;
59006;SDS011;44792;52.760;6.726;2024-02-28T09:46:01;53.05;;;25.33;;
59006;SDS011;44792;52.760;6.726;2024-02-28T09:50:58;55.63;;;25.50;;
59006;SDS011;44792;52.760;6.726;2024-02-28T09:53:25;57.75;;;26.98;;
59006;SDS011;44792;52.760;6.726;2024-02-28T09:55:51;54.92;;;25.45;;
59006;SDS011;44792;52.760;6.726;2024-02-28T09:58:17;54.55;;;24.65;;
59006;SDS011;44792;52.760;6.726;2024-02-28T10:00:46;48.55;;;24.02;;
59006;SDS011;44792;52.760;6.726;2024-02-28T10:03:17;57.78;;;26.40;;
59006;SDS011;44792;52.760;6.726;2024-02-28T10:05:48;51.00;;;24.55;;
59006;SDS011;44792;52.760;6.726;2024-02-28T10:08:15;62.80;;;26.55;;
59006;SDS011;44792;52.760;6.726;2024-02-28T10:10:47;52.83;;;24.35;;
59006;SDS011;44792;52.760;6.726;2024-02-28T10:13:17;58.90;;;27.58;;
59006;SDS011;44792;52.760;6.726;2024-02-28T10:15:43;56.33;;;27.15;;
59006;SDS011;44792;52.760;6.726;2024-02-28T10:18:09;57.63;;;26.60;;
59006;SDS011;44792;52.760;6.726;2024-02-28T10:20:36;58.47;;;27.85;;
59006;SDS011;44792;52.760;6.726;2024-02-28T10:23:05;55.22;;;27.10;;
59006;SDS011;44792;52.760;6.726;2024-02-28T10:25:33;57.93;;;28.47;;
59006;SDS011;44792;52.760;6.726;2024-02-28T10:28:06;57.67;;;27.00;;
59006;SDS011;44792;52.760;6.726;2024-02-28T10:30:32;55.92;;;29.33;;
59006;SDS011;44792;52.760;6.726;2024-02-28T10:32:57;55.17;;;29.05;;
59006;SDS011;44792;52.760;6.726;2024-02-28T10:35:23;52.08;;;26.40;;
59006;SDS011;44792;52.760;6.726;2024-02-28T10:37:52;47.78;;;26.80;;
59006;SDS011;44792;52.760;6.726;2024-02-28T10:40:21;54.08;;;27.08;;
59006;SDS011;44792;52.760;6.726;2024-02-28T10:42:48;48.85;;;25.95;;
59006;SDS011;44792;52.760;6.726;2024-02-28T10:45:15;49.20;;;27.65;;
59006;SDS011;44792;52.760;6.726;2024-02-28T10:47:43;56.67;;;30.15;;
59006;SDS011;44792;52.760;6.726;2024-02-28T10:50:12;56.55;;;28.85;;
59006;SDS011;44792;52.760;6.726;2024-02-28T10:52:39;50.78;;;28.58;;
59006;SDS011;44792;52.760;6.726;2024-02-28T10:55:12;53.72;;;30.20;;
59006;SDS011;44792;52.760;6.726;2024-02-28T10:57:39;58.63;;;28.75;;
59006;SDS011;44792;52.760;6.726;2024-02-28T11:00:11;55.75;;;28.67;;
59006;SDS011;44792;52.760;6.726;2024-02-28T11:02:41;50.15;;;28.42;;
59006;SDS011;44792;52.760;6.726;2024-02-28T11:05:08;52.63;;;29.45;;
59006;SDS011;44792;52.760;6.726;2024-02-28T11:07:34;50.40;;;28.55;;
59006;SDS011;44792;52.760;6.726;2024-02-28T11:10:04;50.30;;;28.95;;
59006;SDS011;44792;52.760;6.726;2024-02-28T11:12:33;51.95;;;29.27;;
59006;SDS011;44792;52.760;6.726;2024-02-28T11:14:59;52.25;;;29.20;;
59006;SDS011;44792;52.760;6.726;2024-02-28T11:17:29;54.35;;;29.55;;
59006;SDS011;44792;52.760;6.726;2024-02-28T11:19:56;53.47;;;29.20;;
59006;SDS011;44792;52.760;6.726;2024-02-28T11:22:22;52.97;;;30.08;;
59006;SDS011;44792;52.760;6.726;2024-02-28T11:24:53;54.17;;;30.17;;
59006;SDS011;44792;52.760;6.726;2024-02-28T11:27:20;53.78;;;31.60;;
59006;SDS011;44792;52.760;6.726;2024-02-28T11:29:46;49.30;;;29.02;;
59006;SDS011;44792;52.760;6.726;2024-02-28T11:32:12;60.78;;;31.90;;
59006;SDS011;44792;52.760;6.726;2024-02-28T11:34:39;56.35;;;30.73;;
59006;SDS011;44792;52.760;6.726;2024-02-28T11:37:09;46.75;;;29.13;;
59006;SDS011;44792;52.760;6.726;2024-02-28T11:39:35;52.97;;;29.92;;
59006;SDS011;44792;52.760;6.726;2024-02-28T11:42:11;52.85;;;30.30;;
59006;SDS011;44792;52.760;6.726;2024-02-28T11:44:40;50.97;;;29.88;;
59006;SDS011;44792;52.760;6.726;2024-02-28T11:47:10;52.88;;;30.38;;
59006;SDS011;44792;52.760;6.726;2024-02-28T11:49:38;54.15;;;30.60;;
59006;SDS011;44792;52.760;6.726;2024-02-28T11:52:04;50.90;;;31.02;;
59006;SDS011;44792;52.760;6.726;2024-02-28T11:54:31;49.58;;;28.80;;
59006;SDS011;44792;52.760;6.726;2024-02-28T11:56:56;50.63;;;30.05;;
59006;SDS011;44792;52.760;6.726;2024-02-28T11:59:23;46.05;;;29.30;;
59006;SDS011;44792;52.760;6.726;2024-02-28T12:01:51;47.75;;;28.88;;
59006;SDS011;44792;52.760;6.726;2024-02-28T12:04:17;50.45;;;29.40;;
59006;SDS011;44792;52.760;6.726;2024-02-28T12:06:43;51.20;;;30.02;;
59006;SDS011;44792;52.760;6.726;2024-02-28T12:09:12;56.47;;;31.17;;
59006;SDS011;44792;52.760;6.726;2024-02-28T12:11:39;52.50;;;30.40;;
59006;SDS011;44792;52.760;6.726;2024-02-28T12:14:08;51.88;;;31.33;;
59006;SDS011;44792;52.760;6.726;2024-02-28T12:16:38;49.13;;;28.67;;
59006;SDS011;44792;52.760;6.726;2024-02-28T12:19:26;47.58;;;28.25;;
59006;SDS011;44792;52.760;6.726;2024-02-28T12:21:50;47.72;;;28.80;;
59006;SDS011;44792;52.760;6.726;2024-02-28T12:24:16;51.03;;;29.48;;
59006;SDS011;44792;52.760;6.726;2024-02-28T12:26:42;51.47;;;30.30;;
59006;SDS011;44792;52.760;6.726;2024-02-28T12:29:08;48.33;;;28.85;;
59006;SDS011;44792;52.760;6.726;2024-02-28T12:31:35;50.72;;;30.10;;
59006;SDS011;44792;52.760;6.726;2024-02-28T12:34:02;51.20;;;30.65;;
59006;SDS011;44792;52.760;6.726;2024-02-28T12:36:30;52.05;;;29.67;;
59006;SDS011;44792;52.760;6.726;2024-02-28T12:38:57;51.03;;;30.25;;
59006;SDS011;44792;52.760;6.726;2024-02-28T12:41:25;48.95;;;30.17;;
59006;SDS011;44792;52.760;6.726;2024-02-28T12:43:54;51.05;;;29.52;;
59006;SDS011;44792;52.760;6.726;2024-02-28T12:46:19;53.78;;;30.63;;
59006;SDS011;44792;52.760;6.726;2024-02-28T12:48:45;51.63;;;31.17;;
59006;SDS011;44792;52.760;6.726;2024-02-28T12:54:17;49.92;;;28.83;;
59006;SDS011;44792;52.760;6.726;2024-02-28T12:56:45;57.05;;;30.92;;
59006;SDS011;44792;52.760;6.726;2024-02-28T12:59:12;49.83;;;27.92;;
59006;SDS011;44792;52.760;6.726;2024-02-28T13:01:38;52.92;;;30.33;;
59006;SDS011;44792;52.760;6.726;2024-02-28T13:04:03;56.45;;;31.38;;
59006;SDS011;44792;52.760;6.726;2024-02-28T13:06:29;58.30;;;32.05;;
59006;SDS011;44792;52.760;6.726;2024-02-28T13:08:55;52.83;;;29.52;;
59006;SDS011;44792;52.760;6.726;2024-02-28T13:11:22;54.60;;;31.15;;
59006;SDS011;44792;52.760;6.726;2024-02-28T13:13:48;48.72;;;29.35;;
59006;SDS011;44792;52.760;6.726;2024-02-28T13:16:18;52.35;;;29.92;;
59006;SDS011;44792;52.760;6.726;2024-02-28T13:18:44;53.10;;;28.60;;
59006;SDS011;44792;52.760;6.726;2024-02-28T13:21:11;56.72;;;30.80;;
59006;SDS011;44792;52.760;6.726;2024-02-28T13:23:37;52.20;;;30.83;;
59006;SDS011;44792;52.760;6.726;2024-02-28T13:26:07;55.38;;;29.85;;
59006;SDS011;44792;52.760;6.726;2024-02-28T13:28:33;54.40;;;28.95;;
59006;SDS011;44792;52.760;6.726;2024-02-28T13:31:00;50.67;;;29.40;;
59006;SDS011;44792;52.760;6.726;2024-02-28T13:33:27;55.58;;;28.85;;
59006;SDS011;44792;52.760;6.726;2024-02-28T13:35:53;49.67;;;27.05;;
59006;SDS011;44792;52.760;6.726;2024-02-28T13:38:19;54.58;;;28.38;;
59006;SDS011;44792;52.760;6.726;2024-02-28T13:40:46;48.45;;;26.73;;
59006;SDS011;44792;52.760;6.726;2024-02-28T13:43:13;51.40;;;27.13;;
59006;SDS011;44792;52.760;6.726;2024-02-28T13:45:39;44.58;;;25.83;;
59006;SDS011;44792;52.760;6.726;2024-02-28T13:48:15;50.70;;;26.95;;
59006;SDS011;44792;52.760;6.726;2024-02-28T13:50:50;43.97;;;25.48;;
59006;SDS011;44792;52.760;6.726;2024-02-28T13:53:16;45.17;;;25.38;;
59006;SDS011;44792;52.760;6.726;2024-02-28T13:55:42;49.55;;;24.73;;
59006;SDS011;44792;52.760;6.726;2024-02-28T13:58:10;42.72;;;26.08;;
59006;SDS011;44792;52.760;6.726;2024-02-28T14:00:37;46.75;;;26.55;;
59006;SDS011;44792;52.760;6.726;2024-02-28T14:03:04;43.88;;;24.67;;
59006;SDS011;44792;52.760;6.726;2024-02-28T14:05:31;48.40;;;26.05;;
59006;SDS011;44792;52.760;6.726;2024-02-28T14:07:57;51.42;;;27.20;;
59006;SDS011;44792;52.760;6.726;2024-02-28T14:10:23;48.88;;;26.95;;
59006;SDS011;44792;52.760;6.726;2024-02-28T14:12:49;47.13;;;27.10;;
59006;SDS011;44792;52.760;6.726;2024-02-28T14:15:18;45.97;;;27.35;;
59006;SDS011;44792;52.760;6.726;2024-02-28T14:17:50;50.08;;;28.00;;
59006;SDS011;44792;52.760;6.726;2024-02-28T14:20:16;50.63;;;26.85;;
59006;SDS011;44792;52.760;6.726;2024-02-28T14:22:42;49.80;;;27.58;;
59006;SDS011;44792;52.760;6.726;2024-02-28T14:25:12;52.08;;;28.40;;